Flugplatz Kührstedt-Bederkesa

Für EDXZ sind keine METAR/TAF Berichte vorhanden.
Es werden die Flugwettermeldungen vom Flugplatz Nordholz Airport in 23 km Entfernung angezeigt.

Bericht für ETMN

vom 25.01. um 22:20 UTC

Wind 7 kt aus 210°

Sichtweite 6000 m

aufgebrochene Bewölkung in 400 ft

bedeckt in 2100 ft

Temperatur 2.0°C

Taupunkt 1.0°C

Luftfeuchtigkeit 93%

Luftdruck 1019 hPa

ETMN 252220Z 21007KT 6000 BKN004 OVC021 02/01 Q1019 YLO
Keine Prognose (TAF) verfügbar.
Impressum